Time;durP1;ratioP1;P1;durP2;ratioP2;P2;SDS_P1;SDS_P2;PMS_P1;PMS_P2;Temp;Humidity;BMP_temperature;BMP_pressure;BME280_temperature;BME280_humidity;BME280_pressure;Samples;Min_cycle;Max_cycle;Signal;HPM_P1;HPM_P2
2021/05/25 00:01:28;;;;;;;;;;;;;;;11.33;100.00;98294.28;5057562;28;19950;-63
2021/05/25 00:03:53;;;;;;;;;;;;;;;11.47;100.00;98290.16;5057071;28;19943;-64
2021/05/25 00:06:18;;;;;;;;;;;;;;;10.78;100.00;98301.00;5037094;28;19970;-63
2021/05/25 00:08:44;;;;;;;;;;;;;;;10.93;100.00;98299.50;5059141;28;20002;-63
2021/05/25 00:11:09;;;;;;;;;;;;;;;10.50;100.00;98295.41;5055481;28;20325;-64
2021/05/25 00:13:35;;;;;;;;;;;;;;;10.48;100.00;98303.19;5053433;28;19921;-63
2021/05/25 00:16:00;;;;;;;;;;;;;;;10.58;100.00;98308.78;5057092;28;19913;-63
2021/05/25 00:18:25;;;;;;;;;;;;;;;10.88;100.00;98307.44;5055945;28;20255;-64
2021/05/25 00:20:51;;;;;;;;;;;;;;;10.76;100.00;98307.97;5050688;28;19917;-64
2021/05/25 00:23:16;;;;;;;;;;;;;;;10.58;100.00;98307.06;5051720;28;20444;-64
2021/05/25 00:25:42;;;;;;;;;;;;;;;10.24;100.00;98312.72;5052235;28;20015;-64
2021/05/25 00:28:07;;;;;;;;;;;;;;;10.85;100.00;98315.28;5054632;28;20289;-63
2021/05/25 00:30:32;;;;;;;;;;;;;;;11.36;100.00;98319.91;5037487;28;19920;-63
2021/05/25 00:32:58;;;;;;;;;;;;;;;11.11;100.00;98310.72;5055193;28;19939;-63
2021/05/25 00:35:25;;;;;;;;;;;;;;;11.03;100.00;98315.38;5039314;28;20366;-63
2021/05/25 00:37:51;;;;;;;;;;;;;;;10.84;100.00;98321.34;5033414;28;19913;-63
2021/05/25 00:40:16;;;;;;;;;;;;;;;11.34;100.00;98316.59;5039041;28;19913;-64
2021/05/25 00:42:42;;;;;;;;;;;;;;;11.32;100.00;98319.22;5058771;28;19920;-63
2021/05/25 00:45:08;;;;;;;;;;;;;;;10.37;100.00;98320.81;5017040;28;20290;-64
2021/05/25 00:47:37;;;;;;;;;;;;;;;10.54;100.00;98313.22;5037155;28;19913;-63
2021/05/25 00:50:12;;;;;;;;;;;;;;;10.70;100.00;98317.69;5066615;28;19920;-64
2021/05/25 00:52:51;;;;;;;;;;;;;;;10.73;100.00;98323.56;5054015;28;19920;-64
2021/05/25 00:55:21;;;;;;;;;;;;;;;10.68;100.00;98317.78;5033276;28;19917;-63
2021/05/25 00:57:46;;;;;;;;;;;;;;;10.73;100.00;98323.56;5040825;28;20297;-63
2021/05/25 01:00:12;;;;;;;;;;;;;;;10.71;100.00;98330.50;5061894;28;19917;-62
2021/05/25 01:02:38;;;;;;;;;;;;;;;10.38;100.00;98318.19;5042528;28;20337;-62
2021/05/25 01:05:04;;;;;;;;;;;;;;;10.14;100.00;98320.00;5045315;28;19913;-62
2021/05/25 01:07:29;;;;;;;;;;;;;;;10.34;100.00;98326.94;5057008;28;19917;-62
2021/05/25 01:09:56;;;;;;;;;;;;;;;10.27;100.00;98315.19;5061708;28;20252;-63
2021/05/25 01:12:25;;;;;;;;;;;;;;;10.36;100.00;98325.13;5059590;28;19912;-62
2021/05/25 01:14:55;;;;;;;;;;;;;;;10.16;100.00;98330.25;5057224;28;20297;-63
2021/05/25 01:17:20;;;;;;;;;;;;;;;9.91;100.00;98323.50;5052533;28;20003;-62
2021/05/25 01:19:45;;;;;;;;;;;;;;;10.53;100.00;98326.16;5038666;28;20003;-62
2021/05/25 01:22:11;;;;;;;;;;;;;;;9.58;100.00;98330.84;5061420;28;19916;-62
2021/05/25 01:24:36;;;;;;;;;;;;;;;10.08;100.00;98319.41;5060523;28;19913;-62
2021/05/25 01:27:02;;;;;;;;;;;;;;;9.89;100.00;98319.34;5054366;28;20373;-62
2021/05/25 01:29:27;;;;;;;;;;;;;;;9.86;100.00;98333.16;5056874;28;19920;-62
2021/05/25 01:31:53;;;;;;;;;;;;;;;10.04;100.00;98331.59;5054817;28;20335;-62
2021/05/25 01:34:18;;;;;;;;;;;;;;;9.84;100.00;98332.38;5037340;28;19943;-62
2021/05/25 01:36:47;;;;;;;;;;;;;;;9.93;100.00;98326.03;5054412;28;20049;-62
2021/05/25 01:39:13;;;;;;;;;;;;;;;10.24;100.00;98325.59;5062197;28;19912;-63
2021/05/25 01:41:38;;;;;;;;;;;;;;;10.31;100.00;98316.78;5065309;28;19965;-62
2021/05/25 01:44:03;;;;;;;;;;;;;;;10.18;100.00;98319.00;5054738;28;19916;-62
2021/05/25 01:46:29;;;;;;;;;;;;;;;10.44;100.00;98315.34;5056180;28;20301;-63
2021/05/25 01:48:54;;;;;;;;;;;;;;;10.12;100.00;98315.81;5054332;28;20320;-62
2021/05/25 01:51:20;;;;;;;;;;;;;;;10.09;100.00;98314.22;5054460;28;19955;-63
2021/05/25 01:53:45;;;;;;;;;;;;;;;9.85;100.00;98318.59;5058421;28;19947;-62
2021/05/25 01:56:10;;;;;;;;;;;;;;;9.83;100.00;98305.00;5055975;28;19916;-63
2021/05/25 01:58:36;;;;;;;;;;;;;;;9.61;100.00;98316.13;5045589;28;19962;-62
2021/05/25 02:01:02;;;;;;;;;;;;;;;9.31;100.00;98317.31;5060452;28;19979;-62
2021/05/25 02:03:28;;;;;;;;;;;;;;;9.69;100.00;98312.41;5055922;28;19913;-62
2021/05/25 02:05:54;;;;;;;;;;;;;;;9.36;100.00;98313.66;5039014;28;19916;-62
2021/05/25 02:08:19;;;;;;;;;;;;;;;9.93;100.00;98316.56;5038180;28;19917;-62
2021/05/25 02:10:56;;;;;;;;;;;;;;;9.35;100.00;98326.56;5043463;28;19920;-62
2021/05/25 02:13:23;;;;;;;;;;;;;;;9.04;100.00;98327.72;5058391;28;19913;-63
2021/05/25 02:15:49;;;;;;;;;;;;;;;9.18;100.00;98332.34;5056239;28;19912;-62
2021/05/25 02:18:19;;;;;;;;;;;;;;;9.30;100.00;98326.72;5039456;28;20050;-62
2021/05/25 02:20:46;;;;;;;;;;;;;;;9.53;100.00;98336.13;5059946;28;20007;-62
2021/05/25 02:23:11;;;;;;;;;;;;;;;9.23;100.00;98330.44;5058325;28;19919;-62
2021/05/25 02:25:37;;;;;;;;;;;;;;;9.30;100.00;98344.72;5053053;28;19957;-61
2021/05/25 02:28:02;;;;;;;;;;;;;;;9.69;100.00;98335.53;5038074;28;20039;-62
2021/05/25 02:30:28;;;;;;;;;;;;;;;9.21;100.00;98342.50;5054711;28;19925;-63
2021/05/25 02:32:54;;;;;;;;;;;;;;;9.50;100.00;98336.25;5037713;28;19920;-62
2021/05/25 02:35:19;;;;;;;;;;;;;;;9.30;100.00;98341.31;5057313;28;20545;-62
2021/05/25 02:37:44;;;;;;;;;;;;;;;9.17;100.00;98336.66;5058886;28;20388;-62
2021/05/25 02:40:11;;;;;;;;;;;;;;;9.40;100.00;98343.50;5054756;28;19962;-62
2021/05/25 02:42:36;;;;;;;;;;;;;;;9.22;100.00;98344.19;5053880;28;19932;-62
2021/05/25 02:45:02;;;;;;;;;;;;;;;9.24;100.00;98342.41;5056603;28;19964;-62
2021/05/25 02:47:27;;;;;;;;;;;;;;;9.06;100.00;98343.06;5055782;28;19947;-62
2021/05/25 02:49:52;;;;;;;;;;;;;;;9.14;100.00;98352.16;5057553;28;19999;-63
2021/05/25 02:52:17;;;;;;;;;;;;;;;9.21;100.00;98348.50;5057459;28;19956;-63
2021/05/25 02:54:43;;;;;;;;;;;;;;;9.27;100.00;98355.13;5037447;28;19920;-62
2021/05/25 02:57:08;;;;;;;;;;;;;;;9.16;100.00;98355.50;5054688;28;19916;-62
2021/05/25 02:59:34;;;;;;;;;;;;;;;8.99;100.00;98357.88;5054165;28;20314;-62
2021/05/25 03:01:59;;;;;;;;;;;;;;;9.13;100.00;98360.75;5053456;28;19966;-63
2021/05/25 03:04:25;;;;;;;;;;;;;;;9.23;100.00;98352.72;5039214;28;20394;-63
2021/05/25 03:06:50;;;;;;;;;;;;;;;9.18;100.00;98364.00;5038472;28;19913;-62
2021/05/25 03:09:15;;;;;;;;;;;;;;;8.97;100.00;98364.78;5053189;28;19920;-63
2021/05/25 03:11:41;;;;;;;;;;;;;;;9.16;100.00;98363.22;5036056;28;19912;-62
2021/05/25 03:14:08;;;;;;;;;;;;;;;8.96;100.00;98358.81;5056394;28;19997;-62
2021/05/25 03:16:33;;;;;;;;;;;;;;;8.98;100.00;98361.31;5055660;28;19934;-62
2021/05/25 03:18:58;;;;;;;;;;;;;;;8.56;100.00;98361.94;5037789;28;19917;-62
2021/05/25 03:21:24;;;;;;;;;;;;;;;8.66;100.00;98370.97;5037492;28;20362;-62
2021/05/25 03:23:49;;;;;;;;;;;;;;;9.02;100.00;98362.88;5057730;28;19923;-62
2021/05/25 03:26:14;;;;;;;;;;;;;;;9.11;100.00;98372.00;5054992;28;19916;-62
2021/05/25 03:28:40;;;;;;;;;;;;;;;8.91;100.00;98367.56;5053365;28;19917;-62
2021/05/25 03:31:05;;;;;;;;;;;;;;;9.12;100.00;98366.81;5054255;28;19963;-62
2021/05/25 03:33:31;;;;;;;;;;;;;;;9.31;100.00;98376.41;5055460;28;19923;-62
2021/05/25 03:35:56;;;;;;;;;;;;;;;9.20;100.00;98374.22;5042346;28;19912;-63
2021/05/25 03:38:21;;;;;;;;;;;;;;;9.05;100.00;98377.34;5053325;28;19978;-62
2021/05/25 03:40:47;;;;;;;;;;;;;;;9.13;100.00;98371.03;5055819;28;20401;-62
2021/05/25 03:43:12;;;;;;;;;;;;;;;9.36;100.00;98377.91;5055895;28;20439;-62
2021/05/25 03:45:37;;;;;;;;;;;;;;;9.07;100.00;98378.97;5058129;28;19913;-62
2021/05/25 03:48:03;;;;;;;;;;;;;;;9.20;100.00;98382.75;5052865;28;19920;-62
2021/05/25 03:50:28;;;;;;;;;;;;;;;9.54;100.00;98384.09;5058129;28;19913;-62
2021/05/25 03:52:57;;;;;;;;;;;;;;;9.17;100.00;98377.75;5051790;28;19939;-62
2021/05/25 04:01:12;;;;;;;;;;;;;;;9.45;100.00;98392.16;4936920;29;19966;-63
2021/05/25 04:03:38;;;;;;;;;;;;;;;9.25;100.00;98389.47;5009407;28;20335;-62
2021/05/25 04:06:03;;;;;;;;;;;;;;;9.18;100.00;98394.81;5042888;28;19913;-62
2021/05/25 04:08:28;;;;;;;;;;;;;;;9.12;100.00;98395.06;5039887;28;20071;-62
2021/05/25 04:10:54;;;;;;;;;;;;;;;8.62;100.00;98404.50;5052661;28;19925;-62
2021/05/25 04:13:19;;;;;;;;;;;;;;;8.92;100.00;98392.38;5047180;28;19916;-62
2021/05/25 04:15:47;;;;;;;;;;;;;;;9.04;100.00;98396.22;5058698;28;20006;-62
2021/05/25 04:18:12;;;;;;;;;;;;;;;8.81;100.00;98404.72;5060914;28;20361;-62
2021/05/25 04:20:38;;;;;;;;;;;;;;;8.86;100.00;98407.97;5036894;28;19916;-62
2021/05/25 04:23:03;;;;;;;;;;;;;;;8.66;100.00;98412.03;5042953;28;19919;-62
2021/05/25 04:25:29;;;;;;;;;;;;;;;8.49;100.00;98415.19;5044002;28;19925;-62
2021/05/25 04:27:54;;;;;;;;;;;;;;;8.71;100.00;98419.59;5056393;28;20578;-63
2021/05/25 04:30:20;;;;;;;;;;;;;;;8.41;100.00;98413.75;5038785;28;19929;-62
2021/05/25 04:32:45;;;;;;;;;;;;;;;8.47;100.00;98411.84;5055575;28;19959;-62
2021/05/25 04:35:10;;;;;;;;;;;;;;;9.11;100.00;98413.94;5054956;28;19917;-61
2021/05/25 04:37:36;;;;;;;;;;;;;;;9.28;100.00;98412.47;5059610;28;19912;-62
2021/05/25 04:40:01;;;;;;;;;;;;;;;9.37;100.00;98419.84;5060817;28;19917;-62
2021/05/25 04:42:27;;;;;;;;;;;;;;;9.25;100.00;98415.16;5059982;28;19924;-62
2021/05/25 04:44:52;;;;;;;;;;;;;;;9.59;100.00;98423.31;5060350;28;19999;-62
2021/05/25 04:47:17;;;;;;;;;;;;;;;9.36;100.00;98418.19;5062875;28;19924;-61
2021/05/25 04:49:43;;;;;;;;;;;;;;;9.40;100.00;98419.75;5057609;28;19913;-61
2021/05/25 04:52:08;;;;;;;;;;;;;;;9.79;100.00;98416.59;5058650;28;20314;-62
2021/05/25 04:54:35;;;;;;;;;;;;;;;10.17;100.00;98421.97;5061126;28;19920;-62
2021/05/25 04:57:00;;;;;;;;;;;;;;;10.12;100.00;98424.72;5043312;28;19924;-62
2021/05/25 04:59:25;;;;;;;;;;;;;;;10.22;100.00;98420.91;5059205;28;19912;-62
2021/05/25 05:01:51;;;;;;;;;;;;;;;10.11;100.00;98422.22;5042951;28;20258;-62
2021/05/25 05:04:16;;;;;;;;;;;;;;;9.99;100.00;98426.94;5057346;28;19912;-62
2021/05/25 05:06:42;;;;;;;;;;;;;;;9.87;100.00;98424.00;5057626;28;20364;-62
2021/05/25 05:09:07;;;;;;;;;;;;;;;9.83;100.00;98425.88;5057121;28;20366;-62
2021/05/25 05:11:32;;;;;;;;;;;;;;;9.79;100.00;98429.44;5056009;28;20004;-62
2021/05/25 05:13:58;;;;;;;;;;;;;;;9.68;100.00;98429.84;5059945;28;19962;-62
2021/05/25 05:16:24;;;;;;;;;;;;;;;9.81;100.00;98425.09;5062914;28;20259;-62
2021/05/25 05:18:49;;;;;;;;;;;;;;;10.08;100.00;98432.63;5039667;28;19923;-62
2021/05/25 05:21:14;;;;;;;;;;;;;;;9.66;100.00;98441.09;5058934;28;19920;-62
2021/05/25 05:23:40;;;;;;;;;;;;;;;10.04;100.00;98437.88;5055851;28;19912;-62
2021/05/25 05:26:05;;;;;;;;;;;;;;;9.72;100.00;98436.56;5060852;28;20347;-60
2021/05/25 05:28:30;;;;;;;;;;;;;;;9.35;100.00;98442.19;5057826;28;19965;-61
2021/05/25 05:30:56;;;;;;;;;;;;;;;9.04;100.00;98439.88;5056371;28;19920;-62
2021/05/25 05:33:21;;;;;;;;;;;;;;;9.39;100.00;98434.31;5055055;28;20365;-62
2021/05/25 05:35:47;;;;;;;;;;;;;;;9.03;100.00;98440.75;5059778;28;19919;-61
2021/05/25 05:38:12;;;;;;;;;;;;;;;9.38;100.00;98431.81;5053414;28;20366;-62
2021/05/25 05:40:38;;;;;;;;;;;;;;;9.82;100.00;98432.72;5036211;28;19972;-62
2021/05/25 05:43:03;;;;;;;;;;;;;;;9.01;100.00;98435.69;5061812;28;19913;-62
2021/05/25 05:45:29;;;;;;;;;;;;;;;9.09;100.00;98436.25;5040007;28;19964;-62
2021/05/25 05:47:54;;;;;;;;;;;;;;;8.86;100.00;98433.66;5037053;28;19956;-62
2021/05/25 05:50:20;;;;;;;;;;;;;;;8.43;100.00;98440.22;5038025;28;20197;-62
2021/05/25 05:52:45;;;;;;;;;;;;;;;8.18;100.00;98449.47;5055676;28;19913;-62
2021/05/25 05:55:10;;;;;;;;;;;;;;;8.48;100.00;98448.59;5058283;28;19913;-62
2021/05/25 05:57:37;;;;;;;;;;;;;;;8.68;100.00;98441.06;5055216;28;20015;-62
2021/05/25 06:00:03;;;;;;;;;;;;;;;8.50;100.00;98449.38;5055309;28;20003;-62
2021/05/25 06:02:28;;;;;;;;;;;;;;;8.80;100.00;98450.09;5055394;28;19920;-62
2021/05/25 06:04:54;;;;;;;;;;;;;;;8.90;100.00;98441.19;5041518;28;19959;-62
2021/05/25 06:07:20;;;;;;;;;;;;;;;8.46;100.00;98447.78;5037875;28;19967;-62
2021/05/25 06:09:45;;;;;;;;;;;;;;;8.75;100.00;98441.72;5038224;28;19948;-62
2021/05/25 06:12:10;;;;;;;;;;;;;;;8.17;100.00;98452.09;5053748;28;20374;-62
2021/05/25 06:14:36;;;;;;;;;;;;;;;9.20;100.00;98443.59;5058475;28;19979;-62
2021/05/25 06:17:02;;;;;;;;;;;;;;;8.75;100.00;98447.69;5058140;28;19913;-62
2021/05/25 06:19:27;;;;;;;;;;;;;;;8.99;100.00;98443.44;5057241;28;19913;-62
2021/05/25 06:21:52;;;;;;;;;;;;;;;8.89;100.00;98451.50;5055501;28;19917;-62
2021/05/25 06:24:18;;;;;;;;;;;;;;;9.28;100.00;98441.56;5056463;28;20389;-62
2021/05/25 06:26:43;;;;;;;;;;;;;;;9.43;100.00;98445.34;5059385;28;20285;-60
2021/05/25 06:29:09;;;;;;;;;;;;;;;9.60;100.00;98445.56;5045248;28;20016;-62
2021/05/25 06:31:34;;;;;;;;;;;;;;;9.81;100.00;98440.50;5038161;28;19920;-62
2021/05/25 06:33:59;;;;;;;;;;;;;;;10.35;100.00;98431.56;5056327;28;19920;-62
2021/05/25 06:36:25;;;;;;;;;;;;;;;10.65;100.00;98436.34;5057903;28;19913;-63
2021/05/25 06:38:50;;;;;;;;;;;;;;;10.15;100.00;98444.34;5055088;28;19942;-63
2021/05/25 06:41:15;;;;;;;;;;;;;;;10.49;100.00;98438.75;5045983;28;20243;-62
2021/05/25 06:43:41;;;;;;;;;;;;;;;10.21;100.00;98444.94;5052205;28;19913;-63
2021/05/25 06:46:07;;;;;;;;;;;;;;;10.51;100.00;98442.06;5060530;28;19912;-63
2021/05/25 06:48:33;;;;;;;;;;;;;;;10.67;100.00;98443.13;5040266;28;20065;-63
2021/05/25 06:50:59;;;;;;;;;;;;;;;10.45;100.00;98448.31;5058558;28;19913;-63
2021/05/25 06:53:24;;;;;;;;;;;;;;;10.55;100.00;98447.94;5034835;28;19916;-63
2021/05/25 06:55:49;;;;;;;;;;;;;;;11.05;100.00;98447.56;5057060;28;20477;-62
2021/05/25 06:58:15;;;;;;;;;;;;;;;10.50;100.00;98450.69;5056685;28;20295;-62
2021/05/25 07:00:40;;;;;;;;;;;;;;;10.35;100.00;98457.28;5052900;28;19920;-63
2021/05/25 07:03:05;;;;;;;;;;;;;;;10.92;100.00;98451.56;5053425;28;19925;-62
2021/05/25 07:05:31;;;;;;;;;;;;;;;10.65;100.00;98454.38;5058321;28;19971;-63
2021/05/25 07:07:56;;;;;;;;;;;;;;;10.25;100.00;98455.97;5063932;28;19912;-62
2021/05/25 07:10:21;;;;;;;;;;;;;;;10.67;100.00;98447.44;5056841;28;19913;-62
2021/05/25 07:12:47;;;;;;;;;;;;;;;10.21;100.00;98454.41;5059403;28;19923;-63
2021/05/25 07:15:13;;;;;;;;;;;;;;;10.58;100.00;98452.94;5062183;28;19967;-63
2021/05/25 07:17:38;;;;;;;;;;;;;;;10.30;100.00;98459.22;5052197;28;19996;-62
2021/05/25 07:20:04;;;;;;;;;;;;;;;9.60;100.00;98462.69;5054481;28;20290;-63
2021/05/25 07:22:29;;;;;;;;;;;;;;;9.19;100.00;98481.28;5057414;28;19928;-62
2021/05/25 07:24:54;;;;;;;;;;;;;;;9.62;100.00;98466.91;5053751;28;20290;-62
2021/05/25 07:27:20;;;;;;;;;;;;;;;9.75;100.00;98474.16;5051570;28;19913;-62
2021/05/25 07:29:47;;;;;;;;;;;;;;;9.96;100.00;98473.34;5059565;28;20373;-62
2021/05/25 07:32:12;;;;;;;;;;;;;;;10.29;100.00;98467.00;5039930;28;19971;-63
2021/05/25 07:34:38;;;;;;;;;;;;;;;10.43;100.00;98462.97;5032107;28;20317;-63
2021/05/25 07:37:03;;;;;;;;;;;;;;;10.55;100.00;98468.53;5021988;28;19913;-63
2021/05/25 07:39:28;;;;;;;;;;;;;;;10.08;100.00;98471.22;5038211;28;19967;-63
2021/05/25 07:41:54;;;;;;;;;;;;;;;10.01;100.00;98474.03;5040264;28;19921;-62
2021/05/25 07:44:19;;;;;;;;;;;;;;;9.87;100.00;98476.28;5036653;28;20469;-63
2021/05/25 07:46:45;;;;;;;;;;;;;;;10.26;100.00;98478.22;5026856;28;20284;-62
2021/05/25 07:49:10;;;;;;;;;;;;;;;10.42;100.00;98479.34;5027224;28;20446;-62
2021/05/25 07:51:36;;;;;;;;;;;;;;;9.73;100.00;98476.78;5014765;28;19914;-62
2021/05/25 07:54:01;;;;;;;;;;;;;;;9.74;100.00;98485.34;5013857;28;19959;-62
2021/05/25 07:56:27;;;;;;;;;;;;;;;10.21;100.00;98475.81;5014952;28;20371;-63
2021/05/25 07:58:53;;;;;;;;;;;;;;;9.85;100.00;98475.47;5015234;28;19920;-63
2021/05/25 08:01:19;;;;;;;;;;;;;;;10.81;100.00;98472.59;5033028;28;19944;-63
2021/05/25 08:03:44;;;;;;;;;;;;;;;10.28;100.00;98476.41;5028182;28;19917;-62
2021/05/25 08:06:10;;;;;;;;;;;;;;;10.63;100.00;98484.53;5030472;28;19920;-62
2021/05/25 08:08:35;;;;;;;;;;;;;;;10.42;100.00;98479.34;5033450;28;20390;-63
2021/05/25 08:11:01;;;;;;;;;;;;;;;9.92;100.00;98479.53;5040405;28;19939;-63
2021/05/25 08:13:28;;;;;;;;;;;;;;;10.59;100.00;98477.81;5029699;28;20309;-63
2021/05/25 08:15:54;;;;;;;;;;;;;;;10.68;100.00;98482.59;5020252;28;19964;-62
2021/05/25 08:20:58;;;;;;;;;;;;;;;11.70;100.00;98477.38;5011948;28;19917;-62
2021/05/25 08:23:23;;;;;;;;;;;;;;;11.30;100.00;98479.09;5027109;28;19913;-63
2021/05/25 08:25:49;;;;;;;;;;;;;;;12.14;100.00;98490.00;5026301;28;20012;-64
2021/05/25 08:28:14;;;;;;;;;;;;;;;11.46;100.00;98479.28;5014422;28;19952;-62
2021/05/25 08:30:40;;;;;;;;;;;;;;;11.55;100.00;98487.53;5040079;28;20075;-63
2021/05/25 08:33:06;;;;;;;;;;;;;;;11.52;100.00;98486.75;5050912;28;19927;-62
2021/05/25 08:35:35;;;;;;;;;;;;;;;11.94;100.00;98490.06;5053870;28;19921;-63
2021/05/25 08:38:02;;;;;;;;;;;;;;;11.86;100.00;98492.13;5050641;28;19920;-63
2021/05/25 08:40:28;;;;;;;;;;;;;;;11.32;100.00;98489.34;5052445;28;19913;-62
2021/05/25 08:42:53;;;;;;;;;;;;;;;12.18;100.00;98490.69;5034049;28;20217;-63
2021/05/25 08:45:21;;;;;;;;;;;;;;;11.89;100.00;98492.03;5061014;28;20015;-63
2021/05/25 08:47:46;;;;;;;;;;;;;;;12.45;100.00;98496.31;5058936;28;20409;-62
2021/05/25 08:50:12;;;;;;;;;;;;;;;11.40;100.00;98491.59;5040742;28;20084;-63
2021/05/25 08:52:38;;;;;;;;;;;;;;;12.62;100.00;98492.91;5057414;28;19916;-63
2021/05/25 08:55:04;;;;;;;;;;;;;;;12.35;100.00;98495.06;5051489;28;20388;-63
2021/05/25 08:57:30;;;;;;;;;;;;;;;12.69;100.00;98488.28;5056091;28;20340;-62
2021/05/25 08:59:55;;;;;;;;;;;;;;;11.95;100.00;98490.91;5062702;28;19917;-63
2021/05/25 09:02:20;;;;;;;;;;;;;;;12.23;100.00;98500.81;5056072;28;19916;-62
2021/05/25 09:05:05;;;;;;;;;;;;;;;11.39;100.00;98502.81;5039799;28;19916;-63
2021/05/25 09:07:47;;;;;;;;;;;;;;;11.12;100.00;98500.50;5061171;28;19963;-63
2021/05/25 09:10:16;;;;;;;;;;;;;;;10.89;100.00;98510.03;5047387;28;19913;-62
2021/05/25 09:12:44;;;;;;;;;;;;;;;10.70;100.00;98513.41;5056737;28;19962;-63
2021/05/25 09:15:10;;;;;;;;;;;;;;;11.15;100.00;98508.09;5056029;28;20015;-63
2021/05/25 09:17:35;;;;;;;;;;;;;;;10.71;100.00;98515.94;5059791;28;20449;-62
2021/05/25 09:20:01;;;;;;;;;;;;;;;10.77;100.00;98510.56;5059705;28;19912;-62
2021/05/25 09:22:30;;;;;;;;;;;;;;;10.09;100.00;98516.63;5057621;28;19932;-63
2021/05/25 09:24:56;;;;;;;;;;;;;;;10.77;100.00;98510.56;5054896;28;20011;-62
2021/05/25 09:27:39;;;;;;;;;;;;;;;10.53;100.00;98511.53;5033334;28;19996;-63
2021/05/25 09:30:14;;;;;;;;;;;;;;;11.32;100.00;98511.72;5058386;28;20358;-62
2021/05/25 09:32:47;;;;;;;;;;;;;;;10.55;100.00;98523.44;5056449;28;19921;-62
2021/05/25 09:35:14;;;;;;;;;;;;;;;10.63;100.00;98518.84;5059520;28;20379;-62
2021/05/25 09:37:41;;;;;;;;;;;;;;;10.83;100.00;98536.06;5054747;28;19917;-62
2021/05/25 09:40:07;;;;;;;;;;;;;;;10.03;100.00;98530.56;5059366;28;20421;-63
2021/05/25 09:42:32;;;;;;;;;;;;;;;10.14;100.00;98537.88;5051710;28;19928;-63
2021/05/25 09:44:58;;;;;;;;;;;;;;;10.85;100.00;98534.25;5037357;28;19916;-63
2021/05/25 09:47:33;;;;;;;;;;;;;;;10.13;100.00;98538.78;5055802;28;19956;-62
2021/05/25 09:49:59;;;;;;;;;;;;;;;11.55;100.00;98529.63;5054129;28;19927;-63
2021/05/25 09:52:25;;;;;;;;;;;;;;;12.35;100.00;98541.53;5055967;28;19912;-63
2021/05/25 09:55:01;;;;;;;;;;;;;;;12.87;100.00;98526.13;5056900;28;19923;-63
2021/05/25 09:57:27;;;;;;;;;;;;;;;12.98;100.00;98529.03;5059816;28;19921;-62
2021/05/25 09:59:52;;;;;;;;;;;;;;;12.26;100.00;98536.81;5034260;28;20373;-63
2021/05/25 10:02:19;;;;;;;;;;;;;;;12.71;100.00;98533.78;5056505;28;19927;-63
2021/05/25 10:05:01;;;;;;;;;;;;;;;11.75;100.00;98530.50;5020710;28;19919;-63
2021/05/25 10:07:27;;;;;;;;;;;;;;;10.61;100.00;98530.94;5039225;28;19919;-63
2021/05/25 10:09:53;;;;;;;;;;;;;;;10.91;100.00;98529.75;5036613;28;19913;-63
2021/05/25 10:12:18;;;;;;;;;;;;;;;11.19;100.00;98532.84;5043087;28;19949;-63
2021/05/25 10:14:44;;;;;;;;;;;;;;;11.62;100.00;98531.00;5052981;28;20627;-63
2021/05/25 10:17:19;;;;;;;;;;;;;;;10.89;100.00;98534.97;5040969;28;19970;-62
2021/05/25 10:19:45;;;;;;;;;;;;;;;11.11;100.00;98534.94;5051754;28;20034;-62
2021/05/25 10:22:10;;;;;;;;;;;;;;;12.10;100.00;98542.66;5025686;28;19921;-62
2021/05/25 10:24:36;;;;;;;;;;;;;;;11.48;100.00;98541.09;5034422;28;19913;-62
2021/05/25 10:27:01;;;;;;;;;;;;;;;10.49;100.00;98556.31;5056960;28;19964;-63
2021/05/25 10:29:26;;;;;;;;;;;;;;;10.94;100.00;98563.13;5038022;28;19917;-62
2021/05/25 10:32:00;;;;;;;;;;;;;;;10.25;100.00;98564.03;5052664;28;19967;-63
2021/05/25 10:34:32;;;;;;;;;;;;;;;11.36;100.00;98560.50;5053615;28;19912;-62
2021/05/25 10:36:59;;;;;;;;;;;;;;;11.11;100.00;98560.69;5056520;28;19970;-62
2021/05/25 10:39:32;;;;;;;;;;;;;;;11.95;100.00;98558.84;5052447;28;19912;-64
2021/05/25 10:42:16;;;;;;;;;;;;;;;12.07;100.00;98563.47;5052968;28;20389;-61
2021/05/25 10:44:45;;;;;;;;;;;;;;;11.84;100.00;98568.78;5056718;28;19917;-58
2021/05/25 10:47:22;;;;;;;;;;;;;;;12.25;100.00;98571.28;5059396;28;19935;-62
2021/05/25 10:50:46;;;;;;;;;;;;;;;12.47;100.00;98561.59;5038820;28;19913;-62
2021/05/25 10:52:53;;;;;;;;;;;;;;;14.26;100.00;98552.69;5042543;28;19916;-62
2021/05/25 10:55:39;;;;;;;;;;;;;;;14.28;100.00;98561.19;5052571;28;20364;-62
2021/05/25 10:58:28;;;;;;;;;;;;;;;14.80;100.00;98560.94;5051001;28;19919;-62
2021/05/25 11:00:54;;;;;;;;;;;;;;;14.46;100.00;98557.63;5053235;28;19924;-62
2021/05/25 11:03:21;;;;;;;;;;;;;;;13.41;100.00;98564.00;5054658;28;19921;-62
2021/05/25 11:05:59;;;;;;;;;;;;;;;13.27;100.00;98567.25;5037167;28;20371;-62
2021/05/25 11:08:25;;;;;;;;;;;;;;;15.04;100.00;98556.13;5052346;28;20007;-62
2021/05/25 11:10:54;;;;;;;;;;;;;;;13.24;100.00;98573.44;5062485;28;19913;-62
2021/05/25 11:13:26;;;;;;;;;;;;;;;15.03;100.00;98570.03;5052705;28;19995;-62
2021/05/25 11:16:01;;;;;;;;;;;;;;;14.89;100.00;98565.59;5055294;28;19949;-63
2021/05/25 11:18:34;;;;;;;;;;;;;;;14.10;100.00;98560.44;5055015;28;20369;-62
2021/05/25 11:21:22;;;;;;;;;;;;;;;14.98;100.00;98570.25;5049298;28;20363;-63
2021/05/25 11:23:51;;;;;;;;;;;;;;;13.04;100.00;98577.00;5040621;28;19917;-62
2021/05/25 11:26:35;;;;;;;;;;;;;;;13.32;100.00;98565.31;5039823;28;19997;-63
2021/05/25 11:29:20;;;;;;;;;;;;;;;12.98;100.00;98577.31;5046106;28;19913;-62
2021/05/25 11:31:45;;;;;;;;;;;;;;;14.01;100.00;98579.91;5053818;28;19920;-62
2021/05/25 11:34:11;;;;;;;;;;;;;;;13.68;100.00;98575.53;5055333;28;19966;-62
2021/05/25 11:36:36;;;;;;;;;;;;;;;13.84;100.00;98572.16;5053656;28;20377;-63
2021/05/25 11:39:09;;;;;;;;;;;;;;;13.14;100.00;98577.41;5052025;28;20393;-62
2021/05/25 11:41:35;;;;;;;;;;;;;;;12.95;100.00;98604.16;5049281;28;20058;-62
2021/05/25 11:44:01;;;;;;;;;;;;;;;11.85;100.00;98603.97;5051850;28;19999;-62
2021/05/25 11:46:41;;;;;;;;;;;;;;;12.03;100.00;98599.78;5038084;28;20344;-62
2021/05/25 11:49:07;;;;;;;;;;;;;;;12.79;100.00;98617.84;5043494;28;19913;-62
2021/05/25 11:51:32;;;;;;;;;;;;;;;12.37;100.00;98632.69;5056700;28;19958;-62
2021/05/25 11:54:08;;;;;;;;;;;;;;;13.10;100.00;98632.75;5037121;28;19920;-62
2021/05/25 11:56:33;;;;;;;;;;;;;;;11.95;100.00;98631.13;5036611;28;19913;-62
2021/05/25 11:58:59;;;;;;;;;;;;;;;11.06;100.00;98652.78;5052562;28;20312;-62
2021/05/25 12:01:40;;;;;;;;;;;;;;;10.94;100.00;98654.13;5051085;28;20267;-62
2021/05/25 12:04:06;;;;;;;;;;;;;;;11.09;100.00;98666.41;5047909;28;19924;-62
2021/05/25 12:06:32;;;;;;;;;;;;;;;11.15;100.00;98664.47;5049805;28;19913;-62
2021/05/25 12:09:07;;;;;;;;;;;;;;;11.69;100.00;98671.72;5033592;28;20437;-62
2021/05/25 12:11:36;;;;;;;;;;;;;;;12.07;100.00;98671.03;5016667;28;19913;-62
2021/05/25 12:14:02;;;;;;;;;;;;;;;11.53;100.00;98683.56;5053213;28;19919;-62
2021/05/25 12:16:27;;;;;;;;;;;;;;;12.52;100.00;98675.91;5052420;28;20294;-62
2021/05/25 12:18:52;;;;;;;;;;;;;;;12.13;100.00;98684.50;5049944;28;20385;-63
2021/05/25 12:21:18;;;;;;;;;;;;;;;13.13;100.00;98676.53;5049152;28;19922;-62
2021/05/25 12:23:44;;;;;;;;;;;;;;;13.14;100.00;98678.22;5030690;28;19913;-62
2021/05/25 12:26:11;;;;;;;;;;;;;;;12.26;100.00;98689.13;5036516;28;19916;-62
2021/05/25 12:28:37;;;;;;;;;;;;;;;11.90;100.00;98684.63;5059215;28;19946;-63
2021/05/25 12:31:03;;;;;;;;;;;;;;;12.21;100.00;98688.50;5048194;28;19920;-62
2021/05/25 12:33:32;;;;;;;;;;;;;;;11.31;100.00;98696.47;5059734;28;20316;-62
2021/05/25 12:36:14;;;;;;;;;;;;;;;11.02;100.00;98702.81;5040978;28;20132;-62
2021/05/25 12:38:39;;;;;;;;;;;;;;;11.35;100.00;98694.63;5066697;28;20385;-62
2021/05/25 12:41:04;;;;;;;;;;;;;;;11.52;100.00;98694.78;5054791;28;19976;-62
2021/05/25 12:43:33;;;;;;;;;;;;;;;12.19;100.00;98695.47;5062297;28;19943;-62
2021/05/25 12:46:08;;;;;;;;;;;;;;;11.71;100.00;98694.88;5038778;28;19913;-62
2021/05/25 12:48:34;;;;;;;;;;;;;;;11.57;100.00;98703.19;5064126;28;19917;-62